createdAt,value
2022-12-24T00:00:02.291Z,100562.91
2022-12-24T00:02:28.800Z,100566.00
2022-12-24T00:05:00.640Z,100562.91
2022-12-24T00:07:27.645Z,100557.03
2022-12-24T00:09:54.008Z,100564.25
2022-12-24T00:12:20.638Z,100562.22
2022-12-24T00:14:47.021Z,100549.78
2022-12-24T00:17:13.585Z,100542.09
2022-12-24T00:19:40.012Z,100557.19
2022-12-24T00:22:06.387Z,100569.59
2022-12-24T00:24:32.743Z,100570.56
2022-12-24T00:26:59.255Z,100563.75
2022-12-24T00:29:25.723Z,100569.22
2022-12-24T00:31:52.124Z,100570.56
2022-12-24T00:34:18.510Z,100573.41
2022-12-24T00:36:44.881Z,100584.63
2022-12-24T00:39:11.404Z,100572.81
2022-12-24T00:41:37.765Z,100589.25
2022-12-24T00:44:06.782Z,100599.78
2022-12-24T00:46:34.664Z,100601.47
2022-12-24T00:49:01.839Z,100598.25
2022-12-24T00:51:29.204Z,100609.94
2022-12-24T00:53:55.925Z,100612.16
2022-12-24T00:56:22.815Z,100612.16
2022-12-24T00:58:49.566Z,100612.63
2022-12-24T01:01:16.915Z,100608.63
2022-12-24T01:03:43.661Z,100615.66
2022-12-24T01:06:13.411Z,100619.00
2022-12-24T01:08:40.597Z,100625.16
2022-12-24T01:11:08.609Z,100629.38
2022-12-24T01:13:35.372Z,100632.19
2022-12-24T01:16:01.912Z,100642.50
2022-12-24T01:18:28.816Z,100650.19
2022-12-24T01:21:00.414Z,100648.75
2022-12-24T01:23:27.425Z,100645.00
2022-12-24T01:25:54.126Z,100656.59
2022-12-24T01:28:21.566Z,100631.22
2022-12-24T01:30:48.843Z,100654.72
2022-12-24T01:33:15.287Z,100674.59
2022-12-24T01:35:43.253Z,100665.75
2022-12-24T01:38:11.789Z,100671.59
2022-12-24T01:41:01.083Z,100675.59
2022-12-24T01:43:31.786Z,100671.00
2022-12-24T01:46:27.176Z,100689.41
2022-12-24T01:48:57.833Z,100674.28
2022-12-24T01:52:01.208Z,100700.06
2022-12-24T01:54:53.665Z,100713.09
2022-12-24T01:57:31.764Z,100712.25
2022-12-24T02:00:02.958Z,100712.56
2022-12-24T02:02:29.578Z,100722.09
2022-12-24T02:05:01.742Z,100718.16
2022-12-24T02:07:28.443Z,100718.16
2022-12-24T02:09:59.004Z,100711.13
2022-12-24T02:12:28.357Z,100723.78
2022-12-24T02:14:55.036Z,100718.97
2022-12-24T02:17:35.395Z,100706.69
2022-12-24T02:20:07.747Z,100734.16
2022-12-24T02:22:40.355Z,100735.81
2022-12-24T02:25:32.716Z,100730.44
2022-12-24T02:28:29.688Z,100740.88
2022-12-24T02:31:02.561Z,100736.13
2022-12-24T02:33:42.182Z,100731.50
2022-12-24T02:36:18.991Z,100757.66
2022-12-24T02:39:04.076Z,100754.59
2022-12-24T02:41:53.720Z,100755.28
2022-12-24T02:44:23.443Z,100740.03
2022-12-24T02:46:53.070Z,100763.78
2022-12-24T02:49:19.786Z,100767.81
2022-12-24T02:51:46.164Z,100767.56
2022-12-24T02:54:15.014Z,100769.94
2022-12-24T02:57:05.602Z,100778.94
2022-12-24T02:59:46.547Z,100762.22
2022-12-24T03:02:25.607Z,100770.94
2022-12-24T03:05:19.916Z,100772.63
2022-12-24T03:07:55.273Z,100783.31
2022-12-24T03:10:43.138Z,100795.34
2022-12-24T03:13:14.737Z,100783.75
2022-12-24T03:15:42.342Z,100799.72
2022-12-24T03:18:12.088Z,100796.19
2022-12-24T03:20:42.457Z,100796.72
2022-12-24T03:23:08.994Z,100803.13
2022-12-24T03:25:38.567Z,100791.53
2022-12-24T03:28:07.462Z,100803.19
2022-12-24T03:30:34.301Z,100810.63
2022-12-24T03:33:01.336Z,100806.88
2022-12-24T03:35:27.725Z,100813.59
2022-12-24T03:37:54.098Z,100812.13
2022-12-24T03:40:20.495Z,100812.47
2022-12-24T03:42:46.912Z,100820.34
2022-12-24T03:45:13.367Z,100820.72
2022-12-24T03:47:39.777Z,100825.44
2022-12-24T03:50:07.421Z,100830.78
2022-12-24T03:52:33.835Z,100825.16
2022-12-24T03:55:00.209Z,100836.88
2022-12-24T03:57:26.659Z,100821.28
2022-12-24T03:59:53.139Z,100835.19
2022-12-24T04:02:19.582Z,100825.69
2022-12-24T04:04:46.028Z,100832.88
2022-12-24T04:07:12.444Z,100825.84
2022-12-24T04:09:39.117Z,100829.41
2022-12-24T04:12:05.686Z,100834.22
2022-12-24T04:14:32.097Z,100829.50
2022-12-24T04:16:58.547Z,100841.97
2022-12-24T04:19:24.968Z,100839.28
2022-12-24T04:21:51.357Z,100851.66
2022-12-24T04:24:17.833Z,100846.00
2022-12-24T04:26:44.213Z,100844.47
2022-12-24T04:29:10.560Z,100845.78
2022-12-24T04:31:37.084Z,100858.78
2022-12-24T04:34:03.758Z,100867.31
2022-12-24T04:36:30.269Z,100858.06
2022-12-24T04:38:56.617Z,100870.13
2022-12-24T04:41:24.886Z,100866.63
2022-12-24T04:43:53.678Z,100851.66
2022-12-24T04:46:23.680Z,100860.41
2022-12-24T04:48:51.735Z,100859.91
2022-12-24T04:51:19.294Z,100872.31
2022-12-24T04:53:46.065Z,100844.97
2022-12-24T04:56:15.483Z,100881.97
2022-12-24T04:58:41.934Z,100867.72
2022-12-24T05:01:13.325Z,100873.06
2022-12-24T05:03:39.871Z,100881.56
2022-12-24T05:06:10.367Z,100885.91
2022-12-24T05:08:36.744Z,100888.56
2022-12-24T05:11:03.182Z,100883.22
2022-12-24T05:13:39.113Z,100893.31
2022-12-24T05:16:09.299Z,100889.19
2022-12-24T05:18:35.775Z,100895.91
2022-12-24T05:21:02.561Z,100903.38
2022-12-24T05:23:47.317Z,100891.03
2022-12-24T05:26:37.418Z,100900.78
2022-12-24T05:29:05.240Z,100905.28
2022-12-24T05:31:33.379Z,100904.75
2022-12-24T05:34:00.844Z,100916.69
2022-12-24T05:36:27.720Z,100924.84
2022-12-24T05:38:54.414Z,100923.94
2022-12-24T05:41:21.360Z,100927.91
2022-12-24T05:43:47.877Z,100935.25
2022-12-24T05:46:16.943Z,100935.31
2022-12-24T05:48:43.449Z,100930.91
2022-12-24T05:51:12.470Z,100938.44
2022-12-24T05:53:39.875Z,100939.91
2022-12-24T05:56:12.732Z,100945.63
2022-12-24T05:58:42.143Z,100921.44
2022-12-24T06:01:10.310Z,100951.97
2022-12-24T06:03:37.219Z,100947.47
2022-12-24T06:06:06.647Z,100949.16
2022-12-24T06:08:34.267Z,100959.13
2022-12-24T06:11:02.345Z,100961.78
2022-12-24T06:13:29.496Z,100963.06
2022-12-24T06:16:00.667Z,100969.34
2022-12-24T06:18:29.592Z,100942.59
2022-12-24T06:20:57.682Z,100959.78
2022-12-24T06:23:24.617Z,100932.38
2022-12-24T06:25:51.659Z,100959.50
2022-12-24T06:28:18.447Z,100973.84
2022-12-24T06:30:49.385Z,100972.94
2022-12-24T06:33:18.345Z,100975.41
2022-12-24T06:35:46.312Z,100981.78
2022-12-24T06:38:13.235Z,100987.75
2022-12-24T06:40:39.795Z,100988.78
2022-12-24T06:43:06.331Z,100998.78
2022-12-24T06:45:32.801Z,101004.97
2022-12-24T06:47:59.579Z,101012.03
2022-12-24T06:50:25.995Z,101003.00
2022-12-24T06:52:52.712Z,101006.81
2022-12-24T06:55:19.161Z,101005.81
2022-12-24T06:57:45.526Z,101007.88
2022-12-24T07:00:12.683Z,101015.13
2022-12-24T07:02:43.045Z,101009.78
2022-12-24T07:05:11.287Z,101015.97
2022-12-24T07:07:38.953Z,101011.19
2022-12-24T07:10:08.314Z,101022.53
2022-12-24T07:12:34.673Z,101027.16
2022-12-24T07:15:01.040Z,101039.44
2022-12-24T07:17:27.793Z,101041.91
2022-12-24T07:19:54.620Z,101049.06
2022-12-24T07:22:21.124Z,101050.84
2022-12-24T07:24:47.556Z,101050.47
2022-12-24T07:27:13.893Z,101056.56
2022-12-24T07:29:41.164Z,101053.50
2022-12-24T07:32:08.013Z,101051.31
2022-12-24T07:34:34.648Z,101062.69
2022-12-24T07:37:00.990Z,101044.19
2022-12-24T07:39:27.507Z,101071.63
2022-12-24T07:41:53.879Z,101079.75
2022-12-24T07:44:20.246Z,101075.22
2022-12-24T07:46:46.680Z,101060.19
2022-12-24T07:49:13.144Z,101085.16
2022-12-24T07:51:39.605Z,101085.16
2022-12-24T07:54:06.033Z,101095.72
2022-12-24T07:56:32.671Z,101098.25
2022-12-24T07:58:59.163Z,101090.00
2022-12-24T08:01:25.778Z,101108.59
2022-12-24T08:03:54.451Z,101112.81
2022-12-24T08:06:23.967Z,101112.13
2022-12-24T08:08:50.536Z,101125.34
2022-12-24T08:11:16.920Z,101121.63
2022-12-24T08:13:43.300Z,101123.16
2022-12-24T08:16:09.795Z,101130.88
2022-12-24T08:18:36.223Z,101116.72
2022-12-24T08:21:02.621Z,101145.16
2022-12-24T08:23:29.039Z,101149.53
2022-12-24T08:25:55.426Z,101151.06
2022-12-24T08:28:21.860Z,101150.38
2022-12-24T08:30:50.160Z,101150.91
2022-12-24T08:33:17.190Z,101159.63
2022-12-24T08:35:55.416Z,101153.81
2022-12-24T08:38:22.276Z,101157.47
2022-12-24T08:40:49.958Z,101160.16
2022-12-24T08:43:17.369Z,101164.09
2022-12-24T08:45:43.959Z,101162.41
2022-12-24T08:48:10.955Z,101170.94
2022-12-24T08:50:41.246Z,101174.63
2022-12-24T08:53:09.284Z,101177.84
2022-12-24T08:55:36.249Z,101180.06
2022-12-24T08:58:03.268Z,101183.72
2022-12-24T09:00:29.812Z,101185.09
2022-12-24T09:02:56.965Z,101169.34
2022-12-24T09:05:23.444Z,101188.41
2022-12-24T09:07:49.819Z,101200.63
2022-12-24T09:10:17.083Z,101199.94
2022-12-24T09:12:43.466Z,101206.75
2022-12-24T09:15:11.100Z,101204.16
2022-12-24T09:17:37.570Z,101212.34
2022-12-24T09:20:06.857Z,101189.03
2022-12-24T09:22:38.744Z,101216.78
2022-12-24T09:25:10.499Z,101224.13
2022-12-24T09:27:37.081Z,101201.72
2022-12-24T09:30:04.673Z,101222.44
2022-12-24T09:32:31.062Z,101235.22
2022-12-24T09:34:57.511Z,101237.47
2022-12-24T09:37:23.916Z,101237.59
2022-12-24T09:39:50.465Z,101239.22
2022-12-24T09:42:37.047Z,101242.66
2022-12-24T09:45:32.163Z,101240.44
2022-12-24T09:48:09.749Z,101247.47
2022-12-24T09:50:45.859Z,101254.75
2022-12-24T09:53:25.925Z,101246.94
2022-12-24T09:55:56.464Z,101253.66
2022-12-24T09:58:31.237Z,101254.19
2022-12-24T10:00:57.743Z,101245.09
2022-12-24T10:03:24.471Z,101261.94
2022-12-24T10:06:28.567Z,101263.91
2022-12-24T10:09:26.211Z,101260.25
2022-12-24T10:12:09.153Z,101268.44
2022-12-24T10:14:49.600Z,101257.72
2022-12-24T10:17:46.431Z,101260.25
2022-12-24T10:20:24.698Z,101275.00
2022-12-24T10:23:05.361Z,101276.03
2022-12-24T10:25:44.118Z,101260.09
2022-12-24T10:28:19.216Z,101263.44
2022-12-24T10:30:49.678Z,101261.59
2022-12-24T10:33:23.532Z,101259.44
2022-12-24T10:35:54.880Z,101261.53
2022-12-24T10:38:21.340Z,101265.09
2022-12-24T10:40:51.929Z,101275.53
2022-12-24T10:43:21.690Z,101263.53
2022-12-24T10:45:58.153Z,101259.44
2022-12-24T10:48:32.179Z,101256.69
2022-12-24T10:51:03.524Z,101256.06
2022-12-24T10:53:44.616Z,101264.25
2022-12-24T10:56:13.715Z,101250.31
2022-12-24T10:58:52.508Z,101252.16
2022-12-24T11:01:19.488Z,101264.72
2022-12-24T11:03:46.144Z,101255.00
2022-12-24T11:06:21.234Z,101248.78
2022-12-24T11:08:47.685Z,101242.22
2022-12-24T11:11:20.187Z,101250.41
2022-12-24T11:13:56.139Z,101249.06
2022-12-24T11:16:33.803Z,101245.75
2022-12-24T11:19:03.114Z,101248.81
2022-12-24T11:21:39.658Z,101251.50
2022-12-24T11:24:27.790Z,101258.16
2022-12-24T11:26:54.413Z,101241.81
2022-12-24T11:29:24.146Z,101250.31
2022-12-24T11:31:52.726Z,101253.19
2022-12-24T11:34:30.470Z,101255.88
2022-12-24T11:37:21.597Z,101249.47
2022-12-24T11:39:53.894Z,101252.94
2022-12-24T11:42:28.410Z,101248.97
2022-12-24T11:44:56.867Z,101261.38
2022-12-24T11:47:34.561Z,101265.53
2022-12-24T11:50:32.890Z,101268.97
2022-12-24T11:53:03.785Z,101273.50
2022-12-24T11:55:45.380Z,101277.66
2022-12-24T11:58:14.799Z,101292.22
2022-12-24T12:00:41.779Z,101286.03
2022-12-24T12:03:40.401Z,101290.16
2022-12-24T12:06:26.034Z,101296.81
2022-12-24T12:08:57.195Z,101294.84
2022-12-24T12:11:25.816Z,101273.41
2022-12-24T12:13:53.209Z,101302.25
2022-12-24T12:16:55.387Z,101293.97
2022-12-24T12:19:25.412Z,101307.94
2022-12-24T12:21:52.295Z,101314.97
2022-12-24T12:24:31.754Z,101303.22
2022-12-24T12:27:26.883Z,101316.19
2022-12-24T12:30:00.517Z,101314.13
2022-12-24T12:33:14.767Z,101327.41
2022-12-24T12:35:44.030Z,101310.63
2022-12-24T12:38:15.112Z,101297.16
2022-12-24T12:41:01.051Z,101325.41
2022-12-24T12:43:36.357Z,101318.56
2022-12-24T12:46:10.533Z,101327.47
2022-12-24T12:48:56.954Z,101327.09
2022-12-24T12:51:54.641Z,101318.28
2022-12-24T12:54:46.077Z,101343.97
2022-12-24T12:57:16.719Z,101331.50
2022-12-24T12:59:56.113Z,101340.66
2022-12-24T13:02:58.220Z,101336.06
2022-12-24T13:05:40.676Z,101341.16
2022-12-24T13:08:36.545Z,101333.19
2022-12-24T13:11:11.663Z,101339.09
2022-12-24T13:13:49.679Z,101355.56
2022-12-24T13:16:19.100Z,101350.25
2022-12-24T13:19:04.079Z,101345.34
2022-12-24T13:21:31.404Z,101355.19
2022-12-24T13:24:12.789Z,101365.13
2022-12-24T13:26:39.357Z,101337.59
2022-12-24T13:29:31.745Z,101366.84
2022-12-24T13:32:19.947Z,101374.22
2022-12-24T13:34:55.247Z,101378.53
2022-12-24T13:37:22.639Z,101387.56
2022-12-24T13:40:02.648Z,101383.50
2022-12-24T13:43:00.086Z,101379.28
2022-12-24T13:45:32.384Z,101378.34
2022-12-24T13:48:01.485Z,101377.75
2022-12-24T13:50:56.516Z,101381.75
2022-12-24T13:53:25.926Z,101394.44
2022-12-24T13:55:55.437Z,101394.31
2022-12-24T13:58:24.663Z,101390.63
2022-12-24T14:01:06.274Z,101378.69
2022-12-24T14:03:41.615Z,101383.66
2022-12-24T14:06:25.029Z,101391.78
2022-12-24T14:08:57.087Z,101400.13
2022-12-24T14:11:26.234Z,101410.16
2022-12-24T14:14:08.763Z,101405.78
2022-12-24T14:16:49.893Z,101402.66
2022-12-24T14:19:21.230Z,101412.69
2022-12-24T14:22:02.864Z,101428.41
2022-12-24T14:24:41.568Z,101432.09
2022-12-24T14:27:19.033Z,101432.22
2022-12-24T14:30:08.679Z,101438.19
2022-12-24T14:32:37.167Z,101442.28
2022-12-24T14:35:13.696Z,101438.28
2022-12-24T14:37:48.102Z,101450.63
2022-12-24T14:40:18.297Z,101451.97
2022-12-24T14:43:23.101Z,101459.06
2022-12-24T14:46:23.555Z,101472.44
2022-12-24T14:49:31.453Z,101473.44
2022-12-24T14:51:58.101Z,101477.16
2022-12-24T14:54:37.245Z,101474.50
2022-12-24T14:57:24.606Z,101497.03
2022-12-24T14:59:59.880Z,101505.19
2022-12-24T15:02:48.236Z,101507.72
2022-12-24T15:05:28.464Z,101480.72
2022-12-24T15:08:01.591Z,101518.88
2022-12-24T15:10:33.098Z,101515.78
2022-12-24T15:13:04.323Z,101526.22
2022-12-24T15:15:31.201Z,101535.91
2022-12-24T15:17:58.602Z,101526.03
2022-12-24T15:20:27.751Z,101499.88
2022-12-24T15:22:56.401Z,101507.50
2022-12-24T15:25:27.864Z,101533.22
2022-12-24T15:27:54.495Z,101532.56
2022-12-24T15:30:24.844Z,101535.41
2022-12-24T15:32:53.472Z,101521.34
2022-12-24T15:35:49.306Z,101537.28
2022-12-24T15:38:25.684Z,101530.78
2022-12-24T15:40:54.005Z,101546.41
2022-12-24T15:43:20.822Z,101528.78
2022-12-24T15:45:48.507Z,101545.19
2022-12-24T15:48:29.151Z,101571.09
2022-12-24T15:50:58.712Z,101560.91
2022-12-24T15:53:35.660Z,101571.59
2022-12-24T15:56:13.874Z,101555.25
2022-12-24T15:58:44.808Z,101586.59
2022-12-24T16:01:15.157Z,101588.28
2022-12-24T16:03:55.612Z,101600.16
2022-12-24T16:06:23.076Z,101592.34
2022-12-24T16:08:51.116Z,101581.84
2022-12-24T16:11:19.398Z,101606.09
2022-12-24T16:13:54.768Z,101611.31
2022-12-24T16:16:54.583Z,101618.81
2022-12-24T16:19:28.021Z,101618.63
2022-12-24T16:21:57.619Z,101596.81
2022-12-24T16:24:27.372Z,101607.03
2022-12-24T16:26:54.063Z,101616.88
2022-12-24T16:29:20.605Z,101634.69
2022-12-24T16:31:51.371Z,101631.91
2022-12-24T16:34:18.836Z,101627.00
2022-12-24T16:36:46.561Z,101644.13
2022-12-24T16:39:23.153Z,101643.19
2022-12-24T16:42:12.836Z,101642.81
2022-12-24T16:44:40.276Z,101641.50
2022-12-24T16:47:14.391Z,101644.84
2022-12-24T16:49:40.853Z,101644.63
2022-12-24T16:52:15.079Z,101641.88
2022-12-24T16:54:41.433Z,101659.94
2022-12-24T16:57:09.643Z,101659.34
2022-12-24T16:59:37.457Z,101658.78
2022-12-24T17:02:07.922Z,101658.31
2022-12-24T17:04:37.268Z,101666.06
2022-12-24T17:07:03.645Z,101663.84
2022-12-24T17:09:30.047Z,101648.50
2022-12-24T17:11:56.765Z,101669.84
2022-12-24T17:14:23.363Z,101625.50
2022-12-24T17:16:49.932Z,101667.50
2022-12-24T17:19:17.870Z,101657.13
2022-12-24T17:21:44.833Z,101676.13
2022-12-24T17:24:12.520Z,101682.53
2022-12-24T17:26:38.887Z,101686.81
2022-12-24T17:29:05.304Z,101674.94
2022-12-24T17:31:33.166Z,101683.03
2022-12-24T17:34:00.193Z,101684.72
2022-12-24T17:36:26.635Z,101685.91
2022-12-24T17:38:53.045Z,101687.13
2022-12-24T17:41:20.698Z,101694.91
2022-12-24T17:43:47.837Z,101703.13
2022-12-24T17:46:17.624Z,101697.91
2022-12-24T17:48:44.756Z,101695.41
2022-12-24T17:51:13.980Z,101693.22
2022-12-24T17:53:42.065Z,101692.56
2022-12-24T17:56:12.198Z,101701.91
2022-12-24T17:58:40.371Z,101695.59
2022-12-24T18:01:09.767Z,101690.75
2022-12-24T18:03:36.182Z,101701.16
2022-12-24T18:06:08.275Z,101681.81
2022-12-24T18:08:35.297Z,101652.69
2022-12-24T18:11:12.054Z,101679.47
2022-12-24T18:13:39.061Z,101676.69
2022-12-24T18:16:17.946Z,101680.06
2022-12-24T18:18:44.950Z,101655.47
2022-12-24T18:21:11.441Z,101694.13
2022-12-24T18:23:38.337Z,101677.59
2022-12-24T18:26:05.653Z,101690.66
2022-12-24T18:28:32.123Z,101691.03
2022-12-24T18:31:03.827Z,101694.44
2022-12-24T18:33:31.678Z,101693.94
2022-12-24T18:35:58.117Z,101681.22
2022-12-24T18:38:25.554Z,101687.41
2022-12-24T18:40:51.918Z,101678.16
2022-12-24T18:43:18.461Z,101685.69
2022-12-24T18:45:46.538Z,101687.88
2022-12-24T18:48:13.336Z,101697.09
2022-12-24T18:50:40.854Z,101689.81
2022-12-24T18:53:07.822Z,101680.09
2022-12-24T18:55:35.273Z,101673.22
2022-12-24T18:58:01.662Z,101684.25
2022-12-24T19:00:28.174Z,101700.94
2022-12-24T19:02:54.700Z,101678.19
2022-12-24T19:05:21.155Z,101690.66
2022-12-24T19:07:47.540Z,101706.28
2022-12-24T19:10:13.957Z,101713.09
2022-12-24T19:12:40.332Z,101714.16
2022-12-24T19:15:07.959Z,101713.44
2022-12-24T19:17:34.357Z,101714.91
2022-12-24T19:20:00.754Z,101718.53
2022-12-24T19:22:30.078Z,101717.69
2022-12-24T19:24:56.506Z,101686.53
2022-12-24T19:27:22.916Z,101723.00
2022-12-24T19:29:49.318Z,101718.03
2022-12-24T19:32:15.717Z,101718.41
2022-12-24T19:34:42.411Z,101713.78
2022-12-24T19:37:08.923Z,101704.34
2022-12-24T19:39:35.377Z,101714.03
2022-12-24T19:42:01.806Z,101725.94
2022-12-24T19:44:28.413Z,101711.75
2022-12-24T19:46:54.952Z,101706.63
2022-12-24T19:49:21.416Z,101718.84
2022-12-24T19:51:47.812Z,101714.91
2022-12-24T19:54:19.051Z,101703.72
2022-12-24T19:56:45.953Z,101730.50
2022-12-24T19:59:12.356Z,101730.88
2022-12-24T20:01:38.932Z,101736.69
2022-12-24T20:04:06.399Z,101732.66
2022-12-24T20:06:35.057Z,101734.13
2022-12-24T20:09:05.293Z,101739.00
2022-12-24T20:11:32.838Z,101735.09
2022-12-24T20:14:01.380Z,101727.47
2022-12-24T20:16:29.356Z,101736.81
2022-12-24T20:19:05.983Z,101741.19
2022-12-24T20:21:34.212Z,101750.41
2022-12-24T20:24:00.644Z,101741.88
2022-12-24T20:26:29.194Z,101746.50
2022-12-24T20:28:55.802Z,101761.28
2022-12-24T20:31:24.130Z,101757.66
2022-12-24T20:33:50.689Z,101760.31
2022-12-24T20:36:19.284Z,101724.56
2022-12-24T20:38:46.624Z,101737.97
2022-12-24T20:41:14.932Z,101729.97
2022-12-24T20:43:48.018Z,101759.28
2022-12-24T20:46:19.587Z,101768.75
2022-12-24T20:48:46.543Z,101765.09
2022-12-24T20:51:23.230Z,101774.06
2022-12-24T20:53:51.824Z,101770.19
2022-12-24T20:56:18.717Z,101758.94
2022-12-24T20:58:45.891Z,101769.31
2022-12-24T21:01:16.769Z,101767.97
2022-12-24T21:03:43.270Z,101754.63
2022-12-24T21:06:10.233Z,101757.06
2022-12-24T21:08:36.759Z,101744.44
2022-12-24T21:11:21.724Z,101758.72
2022-12-24T21:13:48.185Z,101761.69
2022-12-24T21:16:14.630Z,101729.09
2022-12-24T21:18:41.049Z,101756.81
2022-12-24T21:21:07.431Z,101761.78
2022-12-24T21:23:33.806Z,101767.72
2022-12-24T21:26:02.197Z,101761.03
2022-12-24T21:28:29.336Z,101759.34
2022-12-24T21:30:55.736Z,101756.97
2022-12-24T21:33:22.154Z,101751.69
2022-12-24T21:35:48.540Z,101747.28
2022-12-24T21:38:15.432Z,101746.03
2022-12-24T21:40:41.785Z,101735.00
2022-12-24T21:43:08.222Z,101738.06
2022-12-24T21:45:34.656Z,101728.31
2022-12-24T21:48:21.049Z,101725.91
2022-12-24T21:50:57.184Z,101727.34
2022-12-24T21:53:42.359Z,101736.84
2022-12-24T21:56:10.744Z,101730.81
2022-12-24T21:58:37.313Z,101731.13
2022-12-24T22:01:08.961Z,101707.84
2022-12-24T22:03:36.124Z,101728.94
2022-12-24T22:06:02.550Z,101731.97
2022-12-24T22:08:47.763Z,101731.59
2022-12-24T22:11:33.611Z,101731.53
2022-12-24T22:14:00.776Z,101724.59
2022-12-24T22:16:28.102Z,101728.81
2022-12-24T22:18:54.686Z,101732.91
2022-12-24T22:21:21.195Z,101745.53
2022-12-24T22:23:47.928Z,101736.00
2022-12-24T22:26:18.383Z,101727.97
2022-12-24T22:28:44.783Z,101753.56
2022-12-24T22:31:19.453Z,101764.50
2022-12-24T22:33:45.901Z,101760.88
2022-12-24T22:36:13.421Z,101753.59
2022-12-24T22:38:43.669Z,101749.06
2022-12-24T22:41:12.041Z,101747.84
2022-12-24T22:43:38.390Z,101742.03
2022-12-24T22:46:06.487Z,101743.19
2022-12-24T22:48:34.646Z,101747.78
2022-12-24T22:51:00.989Z,101748.03
2022-12-24T22:53:27.337Z,101752.72
2022-12-24T22:55:57.938Z,101758.03
2022-12-24T22:58:24.531Z,101762.84
2022-12-24T23:00:51.196Z,101761.66
2022-12-24T23:03:17.975Z,101756.53
2022-12-24T23:05:44.688Z,101755.16
2022-12-24T23:08:12.861Z,101751.31
2022-12-24T23:10:40.367Z,101749.09
2022-12-24T23:13:25.938Z,101754.56
2022-12-24T23:15:52.438Z,101760.75
2022-12-24T23:18:18.855Z,101755.03
2022-12-24T23:20:45.284Z,101743.09
2022-12-24T23:23:12.285Z,101749.75
2022-12-24T23:25:38.844Z,101753.13
2022-12-24T23:28:05.794Z,101727.63
2022-12-24T23:30:32.264Z,101756.84
2022-12-24T23:32:58.627Z,101766.97
2022-12-24T23:35:24.971Z,101758.94
2022-12-24T23:37:51.389Z,101758.38
2022-12-24T23:40:17.810Z,101760.97
2022-12-24T23:42:44.271Z,101765.72
2022-12-24T23:45:10.844Z,101768.41
2022-12-24T23:47:37.202Z,101778.00
2022-12-24T23:50:05.698Z,101771.03
2022-12-24T23:52:32.100Z,101761.84
2022-12-24T23:54:58.457Z,101776.06
2022-12-24T23:57:24.857Z,101769.81
2022-12-24T23:59:51.246Z,101779.47
